Time;durP1;ratioP1;P1;durP2;ratioP2;P2;SDS_P1;SDS_P2;PMS_P1;PMS_P2;Temp;Humidity;BMP_temperature;BMP_pressure;BME280_temperature;BME280_humidity;BME280_pressure;Samples;Min_cycle;Max_cycle;Signal;HPM_P1;HPM_P2
2024/01/11 00:01:59;;;;;;;29.02;17.42;;;;;;;;;;4960327;28;20130;-82
2024/01/11 00:04:25;;;;;;;31.23;19.23;;;;;;;;;;4978985;28;20038;-82
2024/01/11 00:06:52;;;;;;;27.10;16.35;;;;;;;;;;4966516;28;20042;-83
2024/01/11 00:09:18;;;;;;;26.40;16.77;;;;;;;;;;4999518;28;20053;-83
2024/01/11 00:11:44;;;;;;;26.52;18.55;;;;;;;;;;4963664;28;20074;-82
2024/01/11 00:14:10;;;;;;;34.67;18.60;;;;;;;;;;4965823;28;20508;-83
2024/01/11 00:16:35;;;;;;;35.42;18.40;;;;;;;;;;4983534;28;20041;-82
2024/01/11 00:19:01;;;;;;;27.52;16.33;;;;;;;;;;4979500;28;20568;-83
2024/01/11 00:21:26;;;;;;;32.42;19.45;;;;;;;;;;4979852;28;20038;-82
2024/01/11 00:23:52;;;;;;;32.95;15.82;;;;;;;;;;4978712;28;20594;-82
2024/01/11 00:26:17;;;;;;;25.10;16.70;;;;;;;;;;4977499;28;20698;-81
2024/01/11 00:28:44;;;;;;;28.52;17.98;;;;;;;;;;4982309;28;20042;-83
2024/01/11 00:31:10;;;;;;;27.17;16.48;;;;;;;;;;4981055;28;20657;-82
2024/01/11 00:33:36;;;;;;;29.98;17.05;;;;;;;;;;4978838;28;20042;-82
2024/01/11 00:36:01;;;;;;;29.17;17.73;;;;;;;;;;4964909;28;20117;-81
2024/01/11 00:38:27;;;;;;;36.47;19.23;;;;;;;;;;4988675;28;20053;-82
2024/01/11 00:40:53;;;;;;;25.75;17.02;;;;;;;;;;4981994;28;20052;-82
2024/01/11 00:43:18;;;;;;;23.02;15.13;;;;;;;;;;4981213;28;20034;-83
2024/01/11 00:45:45;;;;;;;22.80;16.13;;;;;;;;;;4981814;28;20050;-82
2024/01/11 00:48:12;;;;;;;24.27;15.70;;;;;;;;;;4964526;28;20060;-83
2024/01/11 00:50:37;;;;;;;17.10;12.77;;;;;;;;;;4988375;28;20034;-82
2024/01/11 00:53:03;;;;;;;23.40;16.08;;;;;;;;;;5003790;28;20044;-83
2024/01/11 00:55:29;;;;;;;26.02;16.13;;;;;;;;;;4987158;28;20578;-83
2024/01/11 00:57:55;;;;;;;31.15;18.77;;;;;;;;;;4985184;28;20161;-82
2024/01/11 01:00:20;;;;;;;26.02;18.40;;;;;;;;;;4965194;28;20580;-82
2024/01/11 01:02:46;;;;;;;30.80;17.55;;;;;;;;;;4957306;28;20044;-82
2024/01/11 01:05:11;;;;;;;15.68;11.70;;;;;;;;;;4977425;28;20042;-82
2024/01/11 01:07:37;;;;;;;22.50;16.02;;;;;;;;;;4961338;28;20233;-82
2024/01/11 01:10:03;;;;;;;14.60;12.80;;;;;;;;;;4971109;28;20633;-82
2024/01/11 01:12:28;;;;;;;41.60;20.50;;;;;;;;;;4954683;28;20551;-82
2024/01/11 01:14:55;;;;;;;18.17;13.05;;;;;;;;;;4967768;28;20042;-82
2024/01/11 01:17:22;;;;;;;25.52;16.42;;;;;;;;;;4978078;28;20034;-82
2024/01/11 01:19:47;;;;;;;25.67;16.80;;;;;;;;;;4982688;28;20046;-83
2024/01/11 01:22:13;;;;;;;28.08;18.60;;;;;;;;;;4946392;28;20038;-82
2024/01/11 01:24:38;;;;;;;40.90;19.70;;;;;;;;;;4984077;28;20049;-82
2024/01/11 01:27:04;;;;;;;34.17;19.75;;;;;;;;;;4971501;28;20045;-82
2024/01/11 01:29:30;;;;;;;39.22;19.77;;;;;;;;;;4964337;28;20049;-82
2024/01/11 01:31:55;;;;;;;31.58;18.90;;;;;;;;;;4968205;28;20769;-82
2024/01/11 01:34:21;;;;;;;16.55;13.95;;;;;;;;;;4968176;28;20852;-81
2024/01/11 01:36:46;;;;;;;24.77;15.27;;;;;;;;;;4979644;28;20041;-82
2024/01/11 01:39:12;;;;;;;21.58;13.80;;;;;;;;;;4985795;28;20129;-82
2024/01/11 01:41:38;;;;;;;21.23;14.85;;;;;;;;;;4976645;28;20636;-83
2024/01/11 01:44:04;;;;;;;14.15;11.77;;;;;;;;;;4954749;28;20038;-83
2024/01/11 01:46:29;;;;;;;16.17;11.30;;;;;;;;;;4997266;28;20053;-81
2024/01/11 01:48:57;;;;;;;26.27;16.83;;;;;;;;;;4983940;28;20714;-80
2024/01/11 01:51:26;;;;;;;14.15;10.30;;;;;;;;;;4981525;28;20039;-82
2024/01/11 01:53:54;;;;;;;10.43;9.40;;;;;;;;;;4971842;28;20054;-83
2024/01/11 01:56:21;;;;;;;9.90;9.07;;;;;;;;;;4988757;28;20042;-83
2024/01/11 01:58:49;;;;;;;24.88;14.63;;;;;;;;;;4979951;28;20141;-82
2024/01/11 02:01:15;;;;;;;30.80;18.05;;;;;;;;;;4981171;28;20563;-82
2024/01/11 02:03:41;;;;;;;28.80;15.00;;;;;;;;;;4992491;28;20038;-82
2024/01/11 02:06:07;;;;;;;23.70;18.52;;;;;;;;;;4974940;28;20083;-83
2024/01/11 02:08:34;;;;;;;26.00;15.52;;;;;;;;;;4978157;28;20046;-82
2024/01/11 02:11:00;;;;;;;31.48;16.98;;;;;;;;;;4960521;28;20046;-82
2024/01/11 02:13:26;;;;;;;31.35;17.48;;;;;;;;;;4980217;28;20096;-82
2024/01/11 02:15:52;;;;;;;30.00;18.23;;;;;;;;;;4994593;28;20058;-83
2024/01/11 02:18:17;;;;;;;28.73;18.30;;;;;;;;;;5009760;28;20063;-82
2024/01/11 02:20:43;;;;;;;36.50;21.02;;;;;;;;;;4961442;28;20070;-82
2024/01/11 02:23:17;;;;;;;43.40;21.67;;;;;;;;;;4976161;28;20042;-82
2024/01/11 02:25:42;;;;;;;29.92;18.02;;;;;;;;;;4995852;28;20073;-82
2024/01/11 02:28:08;;;;;;;34.80;16.80;;;;;;;;;;4980767;28;20061;-82
2024/01/11 02:30:34;;;;;;;20.50;15.70;;;;;;;;;;4981064;28;20036;-82
2024/01/11 02:33:01;;;;;;;31.65;16.10;;;;;;;;;;4979779;28;20444;-82
2024/01/11 02:35:27;;;;;;;30.10;17.02;;;;;;;;;;4985524;28;20046;-82
2024/01/11 02:37:53;;;;;;;29.65;18.77;;;;;;;;;;4965636;28;20054;-83
2024/01/11 02:40:19;;;;;;;32.53;15.95;;;;;;;;;;4980032;28;20452;-81
2024/01/11 02:42:44;;;;;;;34.28;18.13;;;;;;;;;;4968526;28;20084;-81
2024/01/11 02:45:11;;;;;;;49.03;22.98;;;;;;;;;;4979574;28;20612;-81
2024/01/11 02:47:36;;;;;;;36.08;16.15;;;;;;;;;;4961430;28;20081;-81
2024/01/11 02:50:02;;;;;;;24.83;15.98;;;;;;;;;;4983666;28;20876;-82
2024/01/11 02:52:28;;;;;;;27.58;12.40;;;;;;;;;;4963290;28;20049;-83
2024/01/11 02:54:53;;;;;;;19.30;14.63;;;;;;;;;;4980276;28;20050;-82
2024/01/11 02:57:19;;;;;;;27.13;16.00;;;;;;;;;;4984412;28;20034;-83
2024/01/11 02:59:44;;;;;;;23.33;15.93;;;;;;;;;;4986883;28;20588;-83
2024/01/11 03:02:10;;;;;;;34.72;18.10;;;;;;;;;;4977047;28;20034;-82
2024/01/11 03:04:35;;;;;;;34.15;20.42;;;;;;;;;;5009385;28;20571;-82
2024/01/11 03:07:01;;;;;;;37.70;19.55;;;;;;;;;;4981773;28;20049;-82
2024/01/11 03:09:27;;;;;;;40.10;22.17;;;;;;;;;;4979515;28;20042;-83
2024/01/11 03:11:52;;;;;;;23.25;16.00;;;;;;;;;;4951697;28;20050;-83
2024/01/11 03:14:18;;;;;;;26.55;18.17;;;;;;;;;;4990799;28;20034;-82
2024/01/11 03:16:44;;;;;;;22.05;15.90;;;;;;;;;;4981236;28;20042;-82
2024/01/11 03:19:09;;;;;;;21.25;16.52;;;;;;;;;;4979744;28;20066;-82
2024/01/11 03:21:35;;;;;;;17.05;14.40;;;;;;;;;;4984180;28;20046;-82
2024/01/11 03:24:01;;;;;;;23.10;16.58;;;;;;;;;;4951717;28;20056;-82
2024/01/11 03:26:27;;;;;;;15.93;13.65;;;;;;;;;;4980862;28;20852;-82
2024/01/11 03:28:52;;;;;;;17.33;13.95;;;;;;;;;;4955117;28;20046;-82
2024/01/11 03:31:18;;;;;;;27.55;18.20;;;;;;;;;;4979515;28;20073;-82
2024/01/11 03:33:43;;;;;;;23.80;15.38;;;;;;;;;;4980951;28;20042;-82
2024/01/11 03:36:10;;;;;;;25.42;17.15;;;;;;;;;;4962246;28;20038;-82
2024/01/11 03:38:36;;;;;;;17.02;14.77;;;;;;;;;;4947448;28;20247;-83
2024/01/11 03:41:02;;;;;;;37.20;18.92;;;;;;;;;;4980173;28;20651;-83
2024/01/11 03:43:28;;;;;;;27.40;15.57;;;;;;;;;;5009030;28;20253;-82
2024/01/11 03:45:53;;;;;;;33.13;19.98;;;;;;;;;;4977776;28;20664;-83
2024/01/11 03:48:19;;;;;;;31.45;17.58;;;;;;;;;;4993059;28;20121;-83
2024/01/11 03:50:45;;;;;;;15.73;11.93;;;;;;;;;;4980537;28;20138;-83
2024/01/11 03:53:10;;;;;;;16.00;14.23;;;;;;;;;;4975564;28;20037;-81
2024/01/11 03:55:36;;;;;;;27.77;18.00;;;;;;;;;;5004304;28;20822;-80
2024/01/11 03:58:02;;;;;;;22.38;14.98;;;;;;;;;;4982783;28;20045;-83
2024/01/11 04:00:27;;;;;;;39.35;18.60;;;;;;;;;;4976635;28;20547;-82
2024/01/11 04:02:53;;;;;;;30.70;18.27;;;;;;;;;;4961254;28;20038;-82
2024/01/11 04:05:18;;;;;;;31.20;20.13;;;;;;;;;;4986670;28;20038;-82
2024/01/11 04:07:44;;;;;;;26.45;16.27;;;;;;;;;;4995333;28;20038;-82
2024/01/11 04:10:10;;;;;;;27.00;16.23;;;;;;;;;;4960837;28;20117;-83
2024/01/11 04:12:36;;;;;;;20.45;15.40;;;;;;;;;;4942829;28;20061;-82
2024/01/11 04:15:02;;;;;;;26.13;16.58;;;;;;;;;;4998142;28;20052;-80
2024/01/11 04:17:28;;;;;;;34.92;18.13;;;;;;;;;;4986282;28;20515;-83
2024/01/11 04:19:54;;;;;;;32.45;19.15;;;;;;;;;;4984258;28;20045;-82
2024/01/11 04:22:20;;;;;;;26.73;13.95;;;;;;;;;;4979454;28;20038;-83
2024/01/11 04:24:45;;;;;;;23.25;15.68;;;;;;;;;;4997707;28;20049;-82
2024/01/11 04:27:11;;;;;;;26.40;16.27;;;;;;;;;;4964961;28;20042;-82
2024/01/11 04:29:37;;;;;;;22.27;17.35;;;;;;;;;;4983724;28;20488;-83
2024/01/11 04:32:03;;;;;;;26.05;17.15;;;;;;;;;;4981091;28;20611;-81
2024/01/11 04:34:29;;;;;;;31.15;17.55;;;;;;;;;;4980619;28;20112;-80
2024/01/11 04:36:54;;;;;;;20.13;14.82;;;;;;;;;;4995154;28;20082;-83
2024/01/11 04:39:20;;;;;;;27.13;17.45;;;;;;;;;;4981815;28;20042;-83
2024/01/11 04:41:45;;;;;;;18.95;16.33;;;;;;;;;;4983840;28;20066;-82
2024/01/11 04:44:11;;;;;;;13.20;11.02;;;;;;;;;;4982269;28;20034;-81
2024/01/11 04:46:36;;;;;;;30.02;12.50;;;;;;;;;;4982700;28;20165;-82
2024/01/11 04:49:02;;;;;;;14.35;11.20;;;;;;;;;;4964325;28;20125;-82
2024/01/11 04:51:27;;;;;;;21.85;17.10;;;;;;;;;;4983784;28;20042;-82
2024/01/11 04:53:53;;;;;;;20.42;16.23;;;;;;;;;;4965709;28;20710;-81
2024/01/11 04:56:19;;;;;;;22.45;16.95;;;;;;;;;;4981962;28;20045;-82
2024/01/11 04:58:45;;;;;;;32.08;18.95;;;;;;;;;;4982075;28;20046;-83
2024/01/11 05:01:15;;;;;;;25.05;14.88;;;;;;;;;;4978618;28;20038;-83
2024/01/11 05:03:44;;;;;;;37.72;21.80;;;;;;;;;;4969916;28;20046;-82
2024/01/11 05:06:18;;;;;;;26.60;17.38;;;;;;;;;;4966221;28;20124;-83
2024/01/11 05:08:46;;;;;;;18.80;13.02;;;;;;;;;;4981673;28;20046;-82
2024/01/11 05:11:23;;;;;;;15.35;11.32;;;;;;;;;;4975644;28;20041;-82
2024/01/11 05:13:49;;;;;;;23.25;16.70;;;;;;;;;;4984468;28;20046;-81
2024/01/11 05:16:25;;;;;;;27.48;19.17;;;;;;;;;;4965023;28;20132;-80
2024/01/11 05:18:52;;;;;;;28.83;17.13;;;;;;;;;;4963914;28;20485;-82
2024/01/11 05:21:18;;;;;;;28.58;19.20;;;;;;;;;;4981317;28;20197;-82
2024/01/11 05:23:44;;;;;;;27.80;18.83;;;;;;;;;;4982747;28;20045;-82
2024/01/11 05:26:10;;;;;;;18.00;12.65;;;;;;;;;;4984305;28;20042;-82
2024/01/11 05:28:36;;;;;;;18.85;13.90;;;;;;;;;;4950231;28;20142;-82
2024/01/11 05:31:01;;;;;;;27.35;16.42;;;;;;;;;;4997076;28;20113;-82
2024/01/11 05:33:27;;;;;;;27.38;18.33;;;;;;;;;;5013696;28;20103;-82
2024/01/11 05:35:53;;;;;;;10.55;9.68;;;;;;;;;;4967631;28;20058;-82
2024/01/11 05:38:22;;;;;;;13.75;11.40;;;;;;;;;;4986404;28;20042;-83
2024/01/11 05:40:47;;;;;;;16.30;14.52;;;;;;;;;;4982328;28;20134;-82
2024/01/11 05:43:13;;;;;;;10.75;9.73;;;;;;;;;;4992759;28;20137;-81
2024/01/11 05:45:38;;;;;;;33.80;16.98;;;;;;;;;;4987011;28;20038;-83
2024/01/11 05:48:05;;;;;;;29.92;17.92;;;;;;;;;;4970222;28;20074;-81
2024/01/11 05:50:31;;;;;;;18.98;15.90;;;;;;;;;;4981100;28;20080;-83
2024/01/11 05:52:57;;;;;;;19.00;13.80;;;;;;;;;;4982205;28;20488;-83
2024/01/11 05:55:22;;;;;;;23.45;16.77;;;;;;;;;;4983667;28;20056;-83
2024/01/11 05:57:48;;;;;;;23.75;17.38;;;;;;;;;;4965244;28;20052;-82
2024/01/11 06:00:14;;;;;;;24.75;16.65;;;;;;;;;;4969815;28;20066;-82
2024/01/11 06:02:40;;;;;;;15.95;14.00;;;;;;;;;;4966348;28;20555;-82
2024/01/11 06:05:09;;;;;;;26.27;16.92;;;;;;;;;;4994014;28;20042;-82
2024/01/11 06:07:35;;;;;;;20.90;14.63;;;;;;;;;;4979139;28;20038;-82
2024/01/11 06:10:02;;;;;;;18.55;14.50;;;;;;;;;;4981914;28;20042;-82
2024/01/11 06:12:29;;;;;;;30.85;17.98;;;;;;;;;;4961950;28;20046;-82
2024/01/11 06:14:55;;;;;;;30.58;18.45;;;;;;;;;;4985652;28;20038;-82
2024/01/11 06:17:21;;;;;;;28.02;16.30;;;;;;;;;;4983729;28;20042;-82
2024/01/11 06:19:46;;;;;;;21.23;15.40;;;;;;;;;;4965206;28;20057;-82
2024/01/11 06:22:12;;;;;;;24.65;16.13;;;;;;;;;;4977510;28;20057;-82
2024/01/11 06:24:38;;;;;;;23.45;16.17;;;;;;;;;;4981114;28;20049;-82
2024/01/11 06:27:04;;;;;;;29.52;17.30;;;;;;;;;;5005515;28;20065;-82
2024/01/11 06:29:30;;;;;;;21.02;14.40;;;;;;;;;;4980070;28;20076;-82
2024/01/11 06:31:55;;;;;;;20.55;16.52;;;;;;;;;;4978817;28;20069;-82
2024/01/11 06:34:21;;;;;;;23.80;16.08;;;;;;;;;;4960700;28;20062;-82
2024/01/11 06:36:46;;;;;;;19.80;15.27;;;;;;;;;;4982038;28;20077;-82
2024/01/11 06:39:12;;;;;;;25.90;14.00;;;;;;;;;;4962264;28;20051;-82
2024/01/11 06:41:38;;;;;;;11.88;9.75;;;;;;;;;;4962868;28;20034;-82
2024/01/11 06:44:04;;;;;;;10.45;9.50;;;;;;;;;;4982207;28;20033;-82
2024/01/11 06:46:30;;;;;;;11.38;10.20;;;;;;;;;;4978608;28;20038;-83
2024/01/11 06:48:56;;;;;;;11.82;10.77;;;;;;;;;;4971772;28;20080;-83
2024/01/11 06:51:23;;;;;;;16.90;12.82;;;;;;;;;;4965730;28;20129;-82
2024/01/11 06:53:49;;;;;;;26.63;16.92;;;;;;;;;;4995761;28;20819;-83
2024/01/11 06:56:17;;;;;;;21.70;16.95;;;;;;;;;;4975556;28;20034;-83
2024/01/11 06:58:45;;;;;;;21.23;16.50;;;;;;;;;;4980658;28;20045;-82
2024/01/11 07:01:12;;;;;;;31.13;16.88;;;;;;;;;;4963077;28;20073;-82
2024/01/11 07:03:38;;;;;;;30.25;18.83;;;;;;;;;;4980179;28;20049;-83
2024/01/11 07:06:04;;;;;;;12.45;9.80;;;;;;;;;;4981574;28;20042;-83
2024/01/11 07:08:30;;;;;;;17.65;12.55;;;;;;;;;;4975870;28;20057;-83
2024/01/11 07:10:56;;;;;;;14.02;12.07;;;;;;;;;;4982350;28;20038;-83
2024/01/11 07:13:22;;;;;;;16.58;13.75;;;;;;;;;;4979819;28;20656;-83
2024/01/11 07:15:48;;;;;;;13.80;12.32;;;;;;;;;;4986180;28;20045;-82
2024/01/11 07:18:14;;;;;;;24.17;17.25;;;;;;;;;;4976368;28;20044;-82
2024/01/11 07:20:40;;;;;;;25.42;15.55;;;;;;;;;;4960761;28;20030;-83
2024/01/11 07:23:06;;;;;;;26.63;14.57;;;;;;;;;;4977841;28;20072;-82
2024/01/11 07:25:34;;;;;;;21.98;16.95;;;;;;;;;;4987227;28;20039;-82
2024/01/11 07:28:00;;;;;;;20.48;15.65;;;;;;;;;;4981390;28;20048;-82
2024/01/11 07:30:26;;;;;;;30.98;18.83;;;;;;;;;;4990887;28;20120;-83
2024/01/11 07:32:52;;;;;;;27.75;18.15;;;;;;;;;;4979800;28;20726;-81
2024/01/11 07:35:17;;;;;;;14.98;13.48;;;;;;;;;;4963185;28;20030;-81
2024/01/11 07:37:43;;;;;;;22.33;16.60;;;;;;;;;;4976535;28;20180;-82
2024/01/11 07:40:10;;;;;;;29.52;19.35;;;;;;;;;;4948445;28;20120;-83
2024/01/11 07:42:38;;;;;;;16.20;14.10;;;;;;;;;;4992912;28;20054;-83
2024/01/11 07:45:05;;;;;;;21.58;13.23;;;;;;;;;;4984120;28;20030;-81
2024/01/11 07:47:31;;;;;;;17.27;13.02;;;;;;;;;;5008757;28;20038;-80
2024/01/11 07:49:57;;;;;;;12.07;8.80;;;;;;;;;;4968920;28;20061;-81
2024/01/11 07:52:22;;;;;;;14.95;11.98;;;;;;;;;;4983302;28;20500;-82
2024/01/11 07:54:48;;;;;;;13.27;11.57;;;;;;;;;;4943708;28;20054;-83
2024/01/11 07:57:13;;;;;;;28.17;17.70;;;;;;;;;;4976866;28;20046;-83
2024/01/11 07:59:39;;;;;;;12.60;11.20;;;;;;;;;;4960346;28;20040;-82
2024/01/11 08:02:05;;;;;;;18.45;14.00;;;;;;;;;;4979650;28;20826;-83
2024/01/11 08:04:31;;;;;;;33.17;18.92;;;;;;;;;;4960162;28;20220;-83
2024/01/11 08:06:59;;;;;;;33.97;19.90;;;;;;;;;;4964650;28;20128;-83
2024/01/11 08:09:28;;;;;;;18.65;16.02;;;;;;;;;;4976809;28;20500;-83
2024/01/11 08:11:54;;;;;;;33.67;19.70;;;;;;;;;;4977295;28;20057;-82
2024/01/11 08:14:20;;;;;;;30.08;18.58;;;;;;;;;;4982465;28;20924;-83
2024/01/11 08:16:46;;;;;;;35.95;23.67;;;;;;;;;;4978851;28;20062;-83
2024/01/11 08:19:14;;;;;;;41.50;22.30;;;;;;;;;;4974386;28;20061;-82
2024/01/11 08:21:41;;;;;;;35.38;20.13;;;;;;;;;;4980419;28;20529;-82
2024/01/11 08:24:07;;;;;;;39.50;21.52;;;;;;;;;;4977142;28;20068;-83
2024/01/11 08:26:32;;;;;;;39.85;22.88;;;;;;;;;;4978201;28;20122;-83
2024/01/11 08:28:58;;;;;;;44.40;20.73;;;;;;;;;;4979616;28;20056;-83
2024/01/11 08:31:24;;;;;;;42.20;21.92;;;;;;;;;;4964740;28;20034;-83
2024/01/11 08:33:50;;;;;;;39.92;22.35;;;;;;;;;;4985104;28;20038;-83
2024/01/11 08:36:15;;;;;;;47.85;24.58;;;;;;;;;;4962382;28;20038;-82
2024/01/11 08:38:41;;;;;;;36.28;20.40;;;;;;;;;;4975784;28;20793;-83
2024/01/11 08:41:07;;;;;;;51.30;24.33;;;;;;;;;;5007872;28;20627;-83
2024/01/11 08:43:32;;;;;;;45.30;21.15;;;;;;;;;;4978608;28;20046;-83
2024/01/11 08:45:58;;;;;;;39.70;22.83;;;;;;;;;;4980226;28;20141;-82
2024/01/11 08:48:24;;;;;;;37.95;21.52;;;;;;;;;;4974302;28;20042;-83
2024/01/11 08:50:50;;;;;;;39.70;21.77;;;;;;;;;;4977414;28;20035;-83
2024/01/11 08:53:16;;;;;;;34.97;19.40;;;;;;;;;;4963602;28;20516;-83
2024/01/11 08:55:42;;;;;;;38.70;21.15;;;;;;;;;;4976603;28;20105;-83
2024/01/11 08:58:08;;;;;;;43.00;22.95;;;;;;;;;;4962091;28;20057;-83
2024/01/11 09:00:34;;;;;;;42.75;25.15;;;;;;;;;;4981220;28;20050;-82
2024/01/11 09:03:00;;;;;;;53.13;26.25;;;;;;;;;;4966176;28;20568;-82
2024/01/11 09:05:25;;;;;;;42.08;24.38;;;;;;;;;;4984062;28;20038;-83
2024/01/11 09:07:51;;;;;;;35.92;21.80;;;;;;;;;;4981543;28;20543;-83
2024/01/11 09:10:17;;;;;;;50.88;25.17;;;;;;;;;;4965403;28;20122;-83
2024/01/11 09:12:42;;;;;;;35.35;20.90;;;;;;;;;;4967365;28;20049;-83
2024/01/11 09:15:08;;;;;;;48.83;24.67;;;;;;;;;;4990296;28;20054;-82
2024/01/11 09:17:34;;;;;;;43.20;21.73;;;;;;;;;;4993500;28;20042;-82
2024/01/11 09:19:59;;;;;;;45.08;20.88;;;;;;;;;;4949978;28;20066;-83
2024/01/11 09:22:25;;;;;;;43.40;22.33;;;;;;;;;;4961406;28;20057;-83
2024/01/11 09:24:52;;;;;;;43.05;21.17;;;;;;;;;;5011558;28;20042;-82
2024/01/11 09:27:17;;;;;;;43.83;24.08;;;;;;;;;;4962680;28;20161;-82
2024/01/11 09:29:44;;;;;;;40.97;22.23;;;;;;;;;;4964594;28;20161;-82
2024/01/11 09:32:10;;;;;;;53.92;24.55;;;;;;;;;;4981013;28;20051;-82
2024/01/11 09:34:35;;;;;;;47.80;24.55;;;;;;;;;;4986019;28;20534;-84
2024/01/11 09:37:01;;;;;;;34.08;21.35;;;;;;;;;;4979106;28;20034;-82
2024/01/11 09:39:27;;;;;;;42.92;24.23;;;;;;;;;;4963375;28;20052;-83
2024/01/11 09:42:03;;;;;;;49.33;22.67;;;;;;;;;;4994030;28;20038;-82
2024/01/11 09:44:29;;;;;;;46.50;24.45;;;;;;;;;;4964225;28;20052;-82
2024/01/11 09:46:58;;;;;;;43.72;22.77;;;;;;;;;;4971404;28;20038;-84
2024/01/11 09:49:24;;;;;;;42.92;21.88;;;;;;;;;;4982225;28;20109;-83
2024/01/11 09:51:51;;;;;;;40.85;22.25;;;;;;;;;;4981369;28;20034;-83
2024/01/11 09:54:20;;;;;;;49.03;24.15;;;;;;;;;;4980408;28;20653;-83
2024/01/11 09:56:47;;;;;;;38.85;22.17;;;;;;;;;;4982061;28;20100;-83
2024/01/11 09:59:13;;;;;;;37.80;20.70;;;;;;;;;;4993951;28;20115;-83
2024/01/11 10:01:38;;;;;;;38.10;22.15;;;;;;;;;;4963436;28;20496;-82
2024/01/11 10:04:04;;;;;;;41.88;21.52;;;;;;;;;;4965752;28;20042;-83
2024/01/11 10:06:33;;;;;;;66.03;28.73;;;;;;;;;;4965937;28;20053;-83
2024/01/11 10:08:59;;;;;;;41.70;24.95;;;;;;;;;;4982697;28;20029;-83
2024/01/11 10:11:25;;;;;;;54.53;26.02;;;;;;;;;;4964995;28;20074;-83
2024/01/11 10:14:01;;;;;;;41.72;20.00;;;;;;;;;;4982625;28;20620;-83
2024/01/11 10:16:29;;;;;;;44.15;25.00;;;;;;;;;;4979686;28;20038;-81
2024/01/11 10:18:55;;;;;;;30.52;19.35;;;;;;;;;;4959815;28;20042;-82
2024/01/11 10:21:23;;;;;;;53.10;26.65;;;;;;;;;;4976895;28;20057;-84
2024/01/11 10:23:51;;;;;;;53.05;27.58;;;;;;;;;;4966296;28;20034;-83
2024/01/11 10:26:17;;;;;;;51.92;28.77;;;;;;;;;;4986247;28;20029;-83
2024/01/11 10:28:46;;;;;;;44.42;24.73;;;;;;;;;;4980148;28;20042;-82
2024/01/11 10:31:16;;;;;;;40.25;23.02;;;;;;;;;;4962352;28;20038;-83
2024/01/11 10:33:41;;;;;;;44.03;25.92;;;;;;;;;;4962359;28;20084;-82
2024/01/11 10:36:07;;;;;;;50.55;27.52;;;;;;;;;;4960215;28;20133;-82
2024/01/11 10:38:39;;;;;;;47.97;27.35;;;;;;;;;;4961027;28;20053;-83
2024/01/11 10:41:06;;;;;;;40.83;24.83;;;;;;;;;;4977616;28;20085;-83
2024/01/11 10:43:34;;;;;;;39.55;23.92;;;;;;;;;;4979549;28;20049;-83
2024/01/11 10:46:03;;;;;;;44.72;25.58;;;;;;;;;;4967394;28;20678;-82
2024/01/11 10:48:34;;;;;;;49.72;25.30;;;;;;;;;;4979198;28;20049;-82
2024/01/11 10:51:02;;;;;;;39.45;24.05;;;;;;;;;;4965392;28;20034;-82
2024/01/11 10:53:34;;;;;;;43.90;26.02;;;;;;;;;;4961160;28;20141;-82
2024/01/11 10:56:01;;;;;;;37.58;23.85;;;;;;;;;;4968598;28;20559;-82
2024/01/11 10:58:27;;;;;;;41.70;22.48;;;;;;;;;;4978530;28;20525;-82
2024/01/11 11:00:56;;;;;;;44.25;24.10;;;;;;;;;;4978496;28;20731;-82
2024/01/11 11:03:25;;;;;;;29.40;20.30;;;;;;;;;;4974495;28;20042;-82
2024/01/11 11:05:53;;;;;;;41.80;23.23;;;;;;;;;;4979606;28;20539;-82
2024/01/11 11:08:19;;;;;;;44.10;23.45;;;;;;;;;;4979075;28;20376;-82
2024/01/11 11:10:47;;;;;;;45.10;25.10;;;;;;;;;;4980107;28;20046;-81
2024/01/11 11:13:15;;;;;;;42.15;25.33;;;;;;;;;;4980349;28;20045;-82
2024/01/11 11:15:45;;;;;;;43.25;23.15;;;;;;;;;;4945057;28;20042;-82
2024/01/11 11:18:13;;;;;;;43.38;24.60;;;;;;;;;;4993426;28;20046;-82
2024/01/11 11:20:41;;;;;;;43.15;26.88;;;;;;;;;;4961579;28;20676;-82
2024/01/11 11:23:09;;;;;;;44.60;25.50;;;;;;;;;;4995190;28;20096;-82
2024/01/11 11:25:35;;;;;;;39.65;26.17;;;;;;;;;;4961509;28;20332;-82
2024/01/11 11:28:03;;;;;;;49.95;27.77;;;;;;;;;;4981746;28;20714;-82
2024/01/11 11:30:33;;;;;;;47.10;29.53;;;;;;;;;;4978939;28;20041;-81
2024/01/11 11:33:08;;;;;;;36.88;23.15;;;;;;;;;;4961595;28;20124;-81
2024/01/11 11:35:34;;;;;;;40.10;24.35;;;;;;;;;;5005524;28;20042;-82
2024/01/11 11:38:00;;;;;;;48.40;26.95;;;;;;;;;;4966174;28;20049;-82
2024/01/11 11:40:33;;;;;;;45.55;26.80;;;;;;;;;;4963504;28;20053;-81
2024/01/11 11:43:02;;;;;;;38.28;24.27;;;;;;;;;;4965285;28;20065;-82
2024/01/11 11:45:28;;;;;;;54.92;27.77;;;;;;;;;;4962798;28;20053;-82
2024/01/11 11:47:54;;;;;;;43.47;26.60;;;;;;;;;;4981447;28;20065;-82
2024/01/11 11:50:22;;;;;;;54.13;29.40;;;;;;;;;;4987718;28;20496;-82
2024/01/11 11:52:54;;;;;;;44.08;25.02;;;;;;;;;;4981484;28;20121;-81
2024/01/11 11:55:21;;;;;;;45.45;26.70;;;;;;;;;;4976576;28;20539;-82
2024/01/11 11:57:47;;;;;;;44.92;27.58;;;;;;;;;;4960878;28;20049;-82
2024/01/11 12:00:16;;;;;;;49.28;27.42;;;;;;;;;;4966938;28;20043;-81
2024/01/11 12:02:41;;;;;;;43.50;26.58;;;;;;;;;;4944515;28;20153;-81
2024/01/11 12:05:08;;;;;;;47.72;27.10;;;;;;;;;;4977780;28;20927;-82
2024/01/11 12:07:33;;;;;;;45.75;27.95;;;;;;;;;;4978428;28;20040;-82
2024/01/11 12:09:59;;;;;;;43.17;27.65;;;;;;;;;;4991841;28;20034;-82
2024/01/11 12:12:25;;;;;;;53.78;29.90;;;;;;;;;;4965680;28;20042;-82
2024/01/11 12:14:52;;;;;;;52.10;29.50;;;;;;;;;;4969526;28;20033;-82
2024/01/11 12:17:18;;;;;;;47.30;28.23;;;;;;;;;;5013766;28;20042;-82
2024/01/11 12:19:44;;;;;;;54.70;29.33;;;;;;;;;;4969332;28;20048;-81
2024/01/11 12:22:10;;;;;;;40.30;24.58;;;;;;;;;;4992552;28;20604;-81
2024/01/11 12:24:36;;;;;;;50.47;26.08;;;;;;;;;;4977700;28;20129;-82
2024/01/11 12:27:02;;;;;;;47.47;26.27;;;;;;;;;;4976486;28;20042;-82
2024/01/11 12:29:31;;;;;;;44.15;25.90;;;;;;;;;;4943800;28;20105;-82
2024/01/11 12:32:00;;;;;;;52.55;26.95;;;;;;;;;;4985847;28;20046;-83
2024/01/11 12:34:26;;;;;;;46.85;27.17;;;;;;;;;;4994234;28;20034;-82
2024/01/11 12:36:53;;;;;;;42.00;25.05;;;;;;;;;;4980991;28;20069;-82
2024/01/11 12:39:22;;;;;;;42.38;25.35;;;;;;;;;;4969649;28;20759;-82
2024/01/11 12:41:50;;;;;;;43.80;23.73;;;;;;;;;;4948261;28;20595;-82
2024/01/11 12:44:17;;;;;;;49.65;28.33;;;;;;;;;;4955033;28;20042;-82
2024/01/11 12:46:42;;;;;;;42.00;25.30;;;;;;;;;;4963593;28;20701;-82
2024/01/11 12:49:10;;;;;;;49.45;27.70;;;;;;;;;;4983536;28;20034;-82
2024/01/11 12:51:36;;;;;;;48.80;27.52;;;;;;;;;;4981395;28;20046;-83
2024/01/11 12:54:04;;;;;;;50.22;24.55;;;;;;;;;;4977117;28;20395;-82
2024/01/11 12:56:30;;;;;;;45.50;25.27;;;;;;;;;;4980704;28;20087;-82
2024/01/11 12:59:06;;;;;;;37.78;22.65;;;;;;;;;;4966796;28;20746;-82
2024/01/11 13:01:32;;;;;;;43.50;27.42;;;;;;;;;;4984253;28;20642;-82
2024/01/11 13:03:58;;;;;;;38.22;21.08;;;;;;;;;;4976310;28;20034;-82
2024/01/11 13:06:25;;;;;;;51.75;26.90;;;;;;;;;;4970184;28;20108;-84
2024/01/11 13:08:51;;;;;;;52.33;28.55;;;;;;;;;;4978633;28;20512;-82
2024/01/11 13:11:17;;;;;;;40.70;23.90;;;;;;;;;;4980928;28;20038;-82
2024/01/11 13:13:42;;;;;;;54.08;28.77;;;;;;;;;;4969300;28;20089;-82
2024/01/11 13:16:14;;;;;;;47.28;27.73;;;;;;;;;;4966791;28;20034;-80
2024/01/11 13:18:40;;;;;;;48.13;24.75;;;;;;;;;;4983294;28;20054;-81
2024/01/11 13:21:09;;;;;;;37.13;21.58;;;;;;;;;;4964361;28;20035;-81
2024/01/11 13:23:35;;;;;;;50.15;23.50;;;;;;;;;;5003157;28;20057;-80
2024/01/11 13:26:02;;;;;;;45.70;23.88;;;;;;;;;;4981495;28;20044;-82
2024/01/11 13:28:27;;;;;;;41.13;24.23;;;;;;;;;;4969147;28;20755;-82
2024/01/11 13:30:53;;;;;;;45.08;25.60;;;;;;;;;;4979949;28;20117;-81
2024/01/11 13:33:19;;;;;;;53.03;27.13;;;;;;;;;;4981105;28;20104;-80
2024/01/11 13:35:45;;;;;;;42.78;22.67;;;;;;;;;;5013394;28;20065;-80
2024/01/11 13:38:11;;;;;;;42.83;23.48;;;;;;;;;;4987760;28;20042;-83
2024/01/11 13:40:38;;;;;;;34.00;22.00;;;;;;;;;;4966730;28;20050;-82
2024/01/11 13:43:03;;;;;;;41.40;23.73;;;;;;;;;;4968041;28;20045;-82
2024/01/11 13:45:29;;;;;;;42.45;22.85;;;;;;;;;;4950372;28;20046;-82
2024/01/11 13:47:55;;;;;;;44.60;23.17;;;;;;;;;;4991148;28;20529;-82
2024/01/11 13:50:23;;;;;;;40.85;22.48;;;;;;;;;;4981165;28;20037;-82
2024/01/11 13:52:50;;;;;;;37.17;21.65;;;;;;;;;;4960899;28;20568;-82
2024/01/11 13:55:17;;;;;;;40.50;24.02;;;;;;;;;;4981648;28;20124;-81
2024/01/11 13:57:43;;;;;;;29.30;19.50;;;;;;;;;;4977810;28;20037;-81
2024/01/11 14:00:11;;;;;;;37.58;22.27;;;;;;;;;;4970517;28;20042;-82
2024/01/11 14:02:37;;;;;;;43.00;23.58;;;;;;;;;;4978835;28;20108;-82
2024/01/11 14:05:06;;;;;;;45.20;24.95;;;;;;;;;;4984424;28;20038;-81
2024/01/11 14:07:31;;;;;;;41.22;23.85;;;;;;;;;;4963218;28;20037;-81
2024/01/11 14:09:57;;;;;;;46.92;24.85;;;;;;;;;;4991983;28;20034;-82
2024/01/11 14:12:23;;;;;;;45.08;25.58;;;;;;;;;;4976661;28;20212;-82